Latest Weather Observations for Trangie

IDN60801

Issued at 2:02 pm EST Saturday 23 May 2015 (issued every 30 minutes, with the page automatically refreshed every 10 minutes)

About weather observations | Map of weather stations | Latest weather observations for NSW | Other Formats
Station Details ID: 051049 Name: TRANGIE RESEARCH STATION AWS Lat: -31.99 Lon: 147.95 Height: 215.0 m
Data from the previous 72 hours. | See also: Recent months at Trangie
Date/Time
EST
Temp
°C
App
Temp
°C
Dew
Point
Rel
Hum
%
Delta-T
°C
Wind Press
QNH
hPa
Press
MSL
hPa
Rain
since 9 am
mm
Dir
 
Spd
km/h
Gust
km/h
Spd
kts
Gust
kts
23/02:00pm 17.0 15.1 9.2 60 4.1 SE 9 13 5 7 1028.5 1028.4 0.0
23/01:30pm 16.9 15.3 8.8 59 4.2 SE 7 15 4 8 1028.8 1028.7 0.0
23/01:00pm 16.2 14.1 8.4 60 4.0 SE 9 17 5 9 1029.0 1028.9 0.0
23/12:30pm 16.3 14.3 8.8 61 3.9 ESE 9 15 5 8 1029.3 1029.2 0.0
23/12:00pm 15.8 13.7 8.3 61 3.8 ESE 9 17 5 9 1029.7 1029.6 0.0
23/11:30am 15.9 14.0 9.1 64 3.5 ESE 9 17 5 9 1030.1 1030.0 0.0
23/11:00am 15.4 13.1 8.9 65 3.3 ESE 11 15 6 8 1030.4 1030.4 0.0
23/10:30am 14.6 12.4 7.9 64 3.4 ESE 9 15 5 8 1030.6 1030.6 0.0
23/10:00am 13.9 11.8 8.3 69 2.8 SE 9 13 5 7 1030.7 1030.7 0.0
23/09:30am 12.8 10.7 8.3 74 2.3 SE 9 13 5 7 1030.6 1030.6 0.0
23/09:00am 11.8 9.5 7.3 74 2.2 SE 9 15 5 8 1030.3 1030.3 0.2
23/08:30am 10.7 8.6 6.8 77 1.9 SE 7 11 4 6 1030.0 1029.9 0.2
23/08:00am 9.0 7.1 6.6 85 1.1 SE 6 13 3 7 1029.7 1029.6 0.2
23/07:30am 6.3 4.1 5.4 94 0.4 SE 6 9 3 5 1029.3 1029.2 0.2
23/07:00am 5.6 3.2 4.4 92 0.5 SE 6 9 3 5 1028.8 1028.7 0.2
23/06:30am 6.3 3.8 4.8 90 0.7 SSE 7 9 4 5 1028.5 1028.4 0.2
23/06:00am 6.1 3.6 4.7 91 0.6 SSE 7 17 4 9 1028.3 1028.2 0.2
23/05:30am 6.4 3.9 5.0 91 0.6 SE 7 11 4 6 1027.9 1027.8 0.2
23/05:00am 6.4 4.1 4.9 90 0.7 SE 6 9 3 5 1027.5 1027.5 0.2
23/04:30am 6.4 3.9 4.9 90 0.7 SSE 7 9 4 5 1027.2 1027.2 0.2
23/04:00am 6.8 4.4 5.3 90 0.7 SSE 7 9 4 5 1027.0 1027.0 0.2
23/03:30am 6.5 4.0 5.0 90 0.7 SSE 7 11 4 6 1026.9 1026.9 0.2
23/03:00am 6.7 4.4 5.0 89 0.7 SE 6 9 3 5 1026.8 1026.8 0.2
23/02:30am 7.1 4.7 5.1 87 0.9 SE 7 11 4 6 1027.0 1027.0 0.2
23/02:00am 7.6 5.2 5.4 86 1.0 SE 7 13 4 7 1026.8 1026.8 0.2
23/01:30am 7.8 5.0 5.3 84 1.1 SE 9 13 5 7 1026.9 1026.9 0.2
23/01:00am 8.3 6.0 5.9 85 1.1 SSE 7 13 4 7 1027.1 1027.1 0.2
23/12:30am 7.6 5.2 5.4 86 1.0 SSE 7 9 4 5 1027.1 1027.1 0.2
23/12:00am 8.3 6.0 5.8 84 1.1 SE 7 11 4 6 1027.3 1027.3 0.2
 
Date/Time
EST
Temp
°C
App
Temp
°C
Dew
Point
Rel
Hum
%
Delta-T
°C
Wind Press
QNH
hPa
Press
MSL
hPa
Rain
since 9 am
mm
Dir
 
Spd
km/h
Gust
km/h
Spd
kts
Gust
kts
22/11:30pm 9.4 6.8 5.9 79 1.6 SSE 9 13 5 7 1027.4 1027.4 0.2
22/11:00pm 9.5 6.9 6.2 80 1.5 SSE 9 15 5 8 1027.3 1027.3 0.2
22/10:30pm 10.2 7.7 6.5 78 1.8 SSE 9 15 5 8 1027.3 1027.3 0.2
22/10:00pm 10.6 8.2 6.9 78 1.8 SSE 9 11 5 6 1027.2 1027.2 0.2
22/09:30pm 10.7 8.3 7.0 78 1.8 S 9 11 5 6 1027.1 1027.1 0.2
22/09:00pm 11.5 9.1 7.2 75 2.1 S 9 15 5 8 1026.7 1026.7 0.2
22/08:30pm 11.1 8.7 7.2 77 1.9 S 9 13 5 7 1026.5 1026.5 0.2
22/08:00pm 11.9 9.5 7.2 73 2.3 S 9 13 5 7 1026.0 1025.9 0.2
22/07:30pm 12.9 10.3 7.8 71 2.5 SSE 11 17 6 9 1025.4 1025.3 0.2
22/07:00pm 12.8 10.2 7.7 71 2.5 S 11 17 6 9 1025.2 1025.1 0.2
22/06:30pm 13.4 10.4 7.6 68 2.9 S 13 22 7 12 1025.0 1024.9 0.2
22/06:00pm 13.9 10.2 7.9 67 3.0 S 17 24 9 13 1024.7 1024.6 0.2
22/05:30pm 14.5 11.6 8.2 66 3.2 S 13 20 7 11 1024.2 1024.1 0.2
22/05:00pm 15.2 11.7 8.9 66 3.2 S 17 32 9 17 1023.6 1023.5 0.0
22/04:30pm 16.2 12.4 8.9 62 3.8 S 19 28 10 15 1023.2 1023.1 0.0
22/04:00pm 16.9 13.5 9.1 60 4.1 SSE 17 28 9 15 1022.7 1022.7 0.0
22/03:30pm 16.8 12.2 9.7 63 3.8 S 24 39 13 21 1022.5 1022.5 0.0
22/03:00pm 17.4 13.1 9.3 59 4.3 S 22 35 12 19 1022.2 1022.2 0.0
22/02:30pm 17.8 13.6 9.7 59 4.3 S 22 41 12 22 1021.8 1021.7 0.0
22/02:00pm 17.3 12.6 9.2 59 4.2 S 24 39 13 21 1021.7 1021.6 0.0
22/01:30pm 17.6 12.9 9.2 58 4.4 S 24 37 13 20 1021.5 1021.4 0.0
22/01:00pm 17.3 12.6 9.2 59 4.2 S 24 37 13 20 1021.4 1021.3 0.0
22/12:41pm 17.0 11.6 9.4 61 4.0 S 28 46 15 25 1021.4 1021.3 0.0
22/12:30pm 17.1 12.2 9.8 62 3.9 S 26 41 14 22 1021.3 1021.2 0.0
22/12:00pm 16.5 11.5 9.4 63 3.7 S 26 37 14 20 1021.7 1021.6 0.0
22/11:30am 15.5 10.7 9.0 65 3.4 S 24 37 13 20 1021.9 1021.8 0.0
22/11:00am 15.2 10.7 10.2 72 2.6 S 24 35 13 19 1022.0 1021.9 0.0
22/10:30am 14.3 10.7 9.9 75 2.3 S 19 32 10 17 1022.4 1022.4 0.0
22/10:00am 13.7 10.1 10.5 81 1.7 SSW 20 30 11 16 1022.3 1022.3 0.0
22/09:30am 12.5 8.8 10.0 85 1.3 SSW 20 26 11 14 1022.1 1022.0 0.0
22/09:00am 12.1 8.4 10.2 88 1.0 SSW 20 30 11 16 1021.8 1021.7 25.8
22/08:30am 11.2 7.4 9.9 92 0.7 SSW 20 30 11 16 1021.6 1021.5 25.8
22/08:00am 10.8 7.3 10.2 96 0.3 SW 19 26 10 14 1021.0 1020.9 25.8
22/07:30am 10.5 7.3 9.9 96 0.3 SW 17 24 9 13 1020.7 1020.6 25.8
22/07:00am 10.4 7.5 9.8 96 0.3 SSW 15 20 8 11 1020.3 1020.2 25.8
22/06:30am 10.5 8.1 9.9 96 0.3 SSW 13 17 7 9 1020.1 1020.0 25.8
22/06:00am 10.5 7.2 9.7 95 0.4 SSW 17 22 9 12 1019.8 1019.7 25.8
22/05:30am 10.8 7.2 9.7 93 0.6 SSW 19 26 10 14 1019.4 1019.3 25.8
22/05:00am 10.9 7.7 9.8 93 0.6 SSW 17 24 9 13 1019.0 1018.9 25.8
22/04:30am 11.0 7.8 9.9 93 0.6 SSW 17 22 9 12 1018.8 1018.7 25.8
22/04:00am 11.0 7.8 9.9 93 0.6 SSW 17 22 9 12 1019.0 1018.9 25.8
22/03:30am 10.9 8.1 10.0 94 0.5 SW 15 19 8 10 1019.0 1018.9 25.8
22/03:00am 11.0 7.5 10.1 94 0.5 SW 19 26 10 14 1019.0 1018.9 25.8
22/02:30am 11.0 7.8 10.1 94 0.5 SSW 17 24 9 13 1019.0 1018.9 25.8
22/02:00am 11.1 7.6 10.2 94 0.5 SW 19 24 10 13 1019.0 1018.9 25.8
22/01:30am 11.2 7.7 10.3 94 0.5 SW 19 24 10 13 1019.0 1018.9 25.8
22/01:00am 11.4 8.0 10.6 95 0.4 SW 19 24 10 13 1018.9 1018.8 25.8
22/12:30am 11.7 8.9 11.4 98 0.2 SW 17 20 9 11 1018.9 1018.8 25.6
22/12:00am 11.9 10.3 11.7 99 0.1 SSW 11 17 6 9 1018.8 1018.7 25.2
 
Date/Time
EST
Temp
°C
App
Temp
°C
Dew
Point
Rel
Hum
%
Delta-T
°C
Wind Press
QNH
hPa
Press
MSL
hPa
Rain
since 9 am
mm
Dir
 
Spd
km/h
Gust
km/h
Spd
kts
Gust
kts
21/11:30pm 12.0 9.7 11.8 99 0.1 SW 15 17 8 9 1018.7 1018.6 25.0
21/11:00pm 11.9 11.1 11.7 99 0.1 SW 7 9 4 5 1019.1 1019.0 24.6
21/10:30pm 11.8 11.0 11.6 99 0.1 WSW 7 11 4 6 1019.3 1019.2 24.0
21/10:00pm 11.9 10.7 11.7 99 0.1 WSW 9 11 5 6 1019.6 1019.5 22.8
21/09:30pm 11.9 11.7 11.7 99 0.1 WNW 4 7 2 4 1019.5 1019.4 20.8
21/09:00pm 11.9 11.7 11.7 99 0.1 WSW 4 6 2 3 1019.2 1019.1 19.0
21/08:30pm 12.0 12.2 11.8 99 0.1 ESE 2 7 1 4 1019.2 1019.1 16.8
21/08:00pm 11.9 11.7 11.7 99 0.1 WNW 4 7 2 4 1019.0 1018.9 15.2
21/07:30pm 11.9 10.7 11.7 99 0.1 N 9 11 5 6 1019.0 1018.9 15.0
21/07:00pm 12.0 12.2 11.8 99 0.1 WSW 2 7 1 4 1018.7 1018.6 14.2
21/06:30pm 12.0 12.6 11.8 99 0.1 CALM 0 0 0 0 1018.6 1018.5 13.8
21/06:00pm 12.1 11.9 11.9 99 0.1 S 4 9 2 5 1018.7 1018.6 13.2
21/05:30pm 12.0 11.8 11.8 99 0.1 WNW 4 7 2 4 1018.2 1018.0 12.6
21/05:00pm 12.3 10.8 12.0 98 0.2 NE 11 15 6 8 1018.0 1017.9 7.8
21/04:30pm 13.4 11.0 11.3 87 1.1 N 15 22 8 12 1017.7 1017.6 0.0
21/04:00pm 16.6 15.5 10.0 65 3.5 SSE 6 11 3 6 1017.1 1017.0 0.0
21/03:30pm 17.0 14.5 9.7 62 3.9 SSW 13 19 7 10 1017.0 1016.9 0.0
21/03:00pm 17.3 14.9 10.2 63 3.8 SSW 13 17 7 9 1017.0 1016.9 0.0
21/02:30pm 17.6 14.9 10.5 63 3.8 SW 15 17 8 9 1017.0 1016.9 0.0
21/02:00pm 17.8 16.1 9.9 60 4.2 SSW 9 13 5 7 1017.1 1017.0 0.0
21/01:30pm 19.1 18.9 10.4 57 4.7 WNW 2 13 1 7 1017.9 1017.8 0.0
21/01:00pm 18.3 17.3 10.4 60 4.3 WNW 6 11 3 6 1018.5 1018.4 0.0
21/12:30pm 18.1 17.0 11.9 67 3.4 NE 9 13 5 7 1019.0 1018.9 0.0
21/12:00pm 17.2 17.4 11.7 70 3.0 ESE 2 9 1 5 1019.5 1019.4 0.0
21/11:30am 17.1 16.3 11.6 70 3.0 ESE 7 9 4 5 1019.9 1019.8 0.0
21/11:00am 16.5 15.4 11.9 74 2.5 ENE 9 13 5 7 1020.0 1019.9 0.0
21/10:30am 15.7 14.1 11.5 76 2.3 E 11 15 6 8 1020.0 1019.9 0.0
21/10:00am 15.9 15.1 11.7 76 2.3 ESE 7 13 4 7 1020.2 1020.1 0.0
21/09:30am 14.7 13.6 11.8 83 1.6 SSE 9 13 5 7 1020.4 1020.3 0.0
21/09:00am 13.9 13.0 12.5 91 0.8 S 9 15 5 8 1020.6 1020.5 0.2
21/08:30am 13.0 11.8 12.8 99 0.1 S 11 15 6 8 1020.4 1020.3 0.2
21/08:00am 11.8 10.6 11.6 99 0.1 SW 9 13 5 7 1020.3 1020.2 0.2
21/07:30am 10.6 9.1 10.4 99 0.1 SW 9 13 5 7 1020.0 1019.9 0.2
21/07:00am 9.8 9.8 9.7 99 0.1 CALM 0 6 0 3 1019.8 1019.7 0.2
21/06:30am 10.2 8.9 10.0 99 0.1 SSW 7 9 4 5 1019.5 1019.4 0.2
21/06:00am 10.9 9.4 10.7 99 0.1 SSW 9 13 5 7 1019.2 1019.1 0.2
21/05:30am 11.0 9.6 10.8 99 0.1 N 9 13 5 7 1019.1 1019.0 0.2
21/05:00am 10.9 9.8 10.7 99 0.1 N 7 9 4 5 1018.9 1018.8 0.2
21/04:30am 11.0 9.9 10.8 99 0.1 N 7 7 4 4 1018.8 1018.7 0.2
21/04:00am 11.0 10.5 10.8 99 0.1 SW 4 6 2 3 1019.1 1019.0 0.2
21/03:30am 11.4 10.6 11.2 99 0.1 SW 6 7 3 4 1018.9 1018.8 0.2
21/03:00am 10.8 9.9 10.6 99 0.1 W 6 7 3 4 1019.0 1018.9 0.2
21/02:30am 10.2 10.3 10.0 99 0.1 CALM 0 0 0 0 1019.1 1019.0 0.2
21/02:00am 10.8 11.0 10.6 99 0.1 CALM 0 0 0 0 1019.0 1018.9 0.2
21/01:30am 11.1 11.4 10.8 98 0.2 CALM 0 0 0 0 1018.6 1018.5 0.2
21/01:00am 12.0 12.5 11.5 97 0.3 CALM 0 0 0 0 1019.0 1018.9 0.2
21/12:30am 12.2 11.5 11.4 95 0.4 N 6 7 3 4 1019.4 1019.3 0.2
21/12:00am 13.2 13.5 12.3 94 0.5 NW 2 7 1 4 1019.5 1019.4 0.2
 
Date/Time
EST
Temp
°C
App
Temp
°C
Dew
Point
Rel
Hum
%
Delta-T
°C
Wind Press
QNH
hPa
Press
MSL
hPa
Rain
since 9 am
mm
Dir
 
Spd
km/h
Gust
km/h
Spd
kts
Gust
kts
20/11:30pm 13.7 12.8 12.6 93 0.6 WSW 9 11 5 6 1019.3 1019.2 0.2
20/11:00pm 14.0 13.2 12.9 93 0.6 SW 9 11 5 6 1019.5 1019.4 0.2
20/10:30pm 14.0 13.7 12.6 91 0.8 WSW 6 7 3 4 1019.1 1019.0 0.2
20/10:00pm 14.1 13.5 12.3 89 1.0 W 7 9 4 5 1019.3 1019.2 0.2
20/09:30pm 14.5 13.9 12.2 86 1.3 W 7 9 4 5 1019.3 1019.2 0.2
20/09:00pm 15.4 14.9 12.5 83 1.6 W 7 11 4 6 1019.0 1018.9 0.2
20/08:30pm 15.9 15.0 12.6 81 1.8 W 9 13 5 7 1018.9 1018.8 0.2
20/08:00pm 16.1 15.2 12.7 80 1.9 W 9 11 5 6 1018.6 1018.5 0.2
20/07:30pm 17.2 15.5 12.5 74 2.6 W 13 19 7 10 1017.8 1017.7 0.2
20/07:00pm 16.5 16.3 14.7 89 1.0 W 9 11 5 6 1017.7 1017.6 0.2
20/06:30pm 17.5 17.8 15.0 85 1.5 NNW 7 13 4 7 1017.1 1017.0 0.2
20/06:00pm 18.2 18.3 15.5 84 1.6 NNW 9 11 5 6 1016.9 1016.8 0.2
20/05:30pm 17.7 18.3 15.7 88 1.2 NW 7 9 4 5 1016.8 1016.7 0.0
20/05:00pm 18.2 18.4 15.8 86 1.4 NW 9 11 5 6 1016.8 1016.7 0.0
20/04:30pm 19.0 19.3 16.0 83 1.8 NW 9 11 5 6 1016.6 1016.5 0.0
20/04:00pm 19.5 20.1 15.8 79 2.2 WNW 7 11 4 6 1016.3 1016.2 0.0
20/03:30pm 19.8 20.2 15.4 76 2.6 NW 7 11 4 6 1015.9 1015.8 0.0
20/03:00pm 19.8 19.7 15.0 74 2.8 WNW 9 15 5 8 1016.1 1016.0 0.0
20/02:30pm 20.3 18.6 14.7 70 3.3 NW 17 22 9 12 1016.3 1016.2 0.0

Other Formats:

Comma delimited format used in spreadsheet applications
http://www.bom.gov.au/fwo/IDN60801/IDN60801.95710.axf

JavaScript Object Notation format (JSON) in row-major order
http://www.bom.gov.au/fwo/IDN60801/IDN60801.95710.json